Time;durP1;ratioP1;P1;durP2;ratioP2;P2;SDS_P1;SDS_P2;PMS_P1;PMS_P2;Temp;Humidity;BMP_temperature;BMP_pressure;BME280_temperature;BME280_humidity;BME280_pressure;Samples;Min_cycle;Max_cycle;Signal;HPM_P1;HPM_P2
2022/11/12 00:01:09;;;;;;;2.85;1.35;;;;;;;5.99;97.63;102607.13;6021020;28;20026;-68
2022/11/12 00:04:05;;;;;;;3.45;1.70;;;;;;;5.88;98.59;102590.94;6022072;28;20085;-68
2022/11/12 00:07:01;;;;;;;4.65;1.55;;;;;;;5.73;98.56;102594.25;6021930;28;20549;-69
2022/11/12 00:09:56;;;;;;;3.93;2.20;;;;;;;5.74;99.34;102604.69;6021662;28;20117;-68
2022/11/12 00:12:52;;;;;;;5.23;1.70;;;;;;;5.73;99.38;102597.75;6021445;28;20022;-68
2022/11/12 00:15:47;;;;;;;4.32;1.58;;;;;;;5.67;99.33;102598.00;6021663;28;20080;-69
2022/11/12 00:18:43;;;;;;;3.33;1.40;;;;;;;5.82;100.00;102599.09;6022033;28;20026;-70
2022/11/12 00:21:38;;;;;;;4.47;1.80;;;;;;;5.95;99.81;102616.91;6021199;28;20027;-69
2022/11/12 00:24:34;;;;;;;3.80;1.77;;;;;;;5.95;99.44;102600.28;6020995;28;20277;-68
2022/11/12 00:27:33;;;;;;;4.97;2.10;;;;;;;5.91;99.51;102604.84;6021870;28;20034;-69
2022/11/12 00:30:29;;;;;;;5.30;1.90;;;;;;;6.01;98.76;102602.63;6019534;28;20030;-70
2022/11/12 00:33:24;;;;;;;4.78;1.80;;;;;;;6.07;98.74;102609.38;6021839;28;20030;-68
2022/11/12 00:36:19;;;;;;;3.77;1.73;;;;;;;6.02;98.43;102598.22;6021690;28;20053;-70
2022/11/12 00:39:15;;;;;;;5.53;1.80;;;;;;;6.06;98.23;102602.44;6021681;28;20330;-69
2022/11/12 00:42:10;;;;;;;5.20;1.53;;;;;;;6.05;97.87;102611.25;6020750;28;20501;-69
2022/11/12 00:45:06;;;;;;;5.23;1.60;;;;;;;6.08;97.88;102605.84;6021455;28;20026;-70
2022/11/12 00:48:01;;;;;;;5.65;1.60;;;;;;;6.31;98.00;102617.00;6021641;28;20297;-68
2022/11/12 00:51:03;;;;;;;4.17;1.80;;;;;;;6.40;96.85;102606.06;6020733;28;20085;-69
2022/11/12 00:53:59;;;;;;;4.50;1.40;;;;;;;6.47;96.25;102606.59;6021661;28;20133;-67
2022/11/12 00:56:54;;;;;;;4.68;1.55;;;;;;;6.56;96.21;102622.84;6020999;28;20037;-68
2022/11/12 00:59:49;;;;;;;6.20;1.93;;;;;;;6.43;95.12;102615.59;6021326;28;20042;-70
2022/11/12 01:02:45;;;;;;;6.10;1.60;;;;;;;6.56;95.35;102628.09;6020320;28;20422;-68
2022/11/12 01:05:40;;;;;;;3.67;1.48;;;;;;;6.62;94.94;102632.22;6021059;28;20034;-69
2022/11/12 01:08:36;;;;;;;6.80;2.00;;;;;;;6.72;94.52;102627.34;6021093;28;20046;-68
2022/11/12 01:11:31;;;;;;;5.18;1.52;;;;;;;6.74;94.01;102626.34;6023699;28;20069;-69
2022/11/12 01:14:27;;;;;;;6.67;2.03;;;;;;;6.65;94.17;102608.38;6024760;28;20039;-70
2022/11/12 01:17:23;;;;;;;5.00;1.67;;;;;;;6.67;93.86;102635.50;6025173;28;20469;-68
2022/11/12 01:20:18;;;;;;;4.77;1.77;;;;;;;6.61;94.47;102633.16;6024341;28;20026;-69
2022/11/12 01:23:13;;;;;;;5.07;1.90;;;;;;;6.73;94.55;102629.94;6025613;28;20470;-69
2022/11/12 01:26:18;;;;;;;2.93;1.30;;;;;;;6.77;93.35;102626.22;6023880;28;20069;-69
2022/11/12 01:29:13;;;;;;;5.53;1.80;;;;;;;6.83;93.62;102615.38;6025245;28;20121;-68
2022/11/12 01:32:08;;;;;;;4.87;1.57;;;;;;;6.82;93.42;102629.47;6024272;28;20038;-69
2022/11/12 01:35:04;;;;;;;4.93;1.37;;;;;;;6.76;93.37;102627.16;6024706;28;20096;-69
2022/11/12 01:37:59;;;;;;;3.97;1.90;;;;;;;6.70;93.54;102632.72;6026345;28;20547;-68
2022/11/12 01:40:54;;;;;;;4.63;1.67;;;;;;;6.68;94.01;102636.34;6024986;28;20733;-69
2022/11/12 01:44:09;;;;;;;3.80;1.43;;;;;;;6.76;94.33;102639.47;6025146;28;20497;-69
2022/11/12 01:47:21;;;;;;;4.10;1.50;;;;;;;6.76;94.37;102635.06;6024769;28;20026;-70
2022/11/12 01:50:23;;;;;;;3.40;1.30;;;;;;;6.71;93.95;102642.34;6024049;28;20061;-69
2022/11/12 01:53:22;;;;;;;3.97;1.88;;;;;;;6.69;94.55;102633.63;6023078;28;20042;-68
2022/11/12 01:56:18;;;;;;;3.58;1.90;;;;;;;6.57;94.69;102623.69;6024286;28;20117;-70
2022/11/12 01:59:19;;;;;;;4.82;1.80;;;;;;;6.57;94.25;102624.56;6024404;28;20049;-70
2022/11/12 02:02:14;;;;;;;;;;;;;;;6.60;94.66;102628.81;6020311;28;20038;-69
2022/11/12 02:05:10;;;;;;;5.10;1.90;;;;;;;6.46;94.89;102628.63;6022464;28;19965;-70
2022/11/12 02:08:06;;;;;;;3.85;2.00;;;;;;;6.52;94.83;102626.53;6022838;28;20058;-68
2022/11/12 02:11:16;;;;;;;5.03;1.98;;;;;;;6.56;94.82;102637.78;6022603;28;20096;-69
2022/11/12 02:14:11;;;;;;;6.50;2.03;;;;;;;6.54;94.99;102639.66;6024572;28;20026;-69
2022/11/12 02:17:06;;;;;;;3.58;1.58;;;;;;;6.66;95.40;102639.06;6022702;28;20101;-70
2022/11/12 02:20:02;;;;;;;5.80;1.97;;;;;;;6.58;94.82;102625.38;6022219;28;20038;-70
2022/11/12 02:22:58;;;;;;;4.45;1.80;;;;;;;6.60;94.89;102631.47;6022382;28;20669;-68
2022/11/12 02:25:53;;;;;;;4.50;1.53;;;;;;;6.65;95.34;102634.72;6024025;28;20536;-70
2022/11/12 02:28:48;;;;;;;4.35;2.05;;;;;;;6.44;95.25;102622.56;6023588;28;20142;-69
2022/11/12 02:31:44;;;;;;;4.53;2.03;;;;;;;6.38;95.22;102633.41;6023171;28;20463;-70
2022/11/12 02:34:39;;;;;;;6.63;2.00;;;;;;;6.28;95.95;102626.81;6023240;28;20035;-68
2022/11/12 02:37:35;;;;;;;5.43;2.20;;;;;;;6.16;96.08;102632.69;6022945;28;20030;-69
2022/11/12 02:40:30;;;;;;;5.93;2.20;;;;;;;6.01;96.86;102622.84;6022817;28;20034;-68
2022/11/12 02:43:25;;;;;;;6.60;2.10;;;;;;;5.90;96.90;102612.78;6023353;28;20034;-70
2022/11/12 02:46:21;;;;;;;8.13;2.20;;;;;;;5.95;97.47;102630.09;6023180;28;20089;-68
2022/11/12 02:49:16;;;;;;;8.18;2.63;;;;;;;5.88;97.29;102625.19;6023373;28;20122;-70
2022/11/12 02:52:11;;;;;;;4.97;2.40;;;;;;;5.89;97.62;102633.03;6022494;28;20050;-68
2022/11/12 02:55:08;;;;;;;8.23;2.27;;;;;;;5.91;98.32;102625.91;6022827;28;20148;-68
2022/11/12 02:58:04;;;;;;;6.72;2.38;;;;;;;5.85;98.91;102613.00;6022585;28;20297;-68
2022/11/12 03:00:59;;;;;;;5.57;2.15;;;;;;;5.72;98.47;102606.56;6022595;28;20027;-70
2022/11/12 03:03:54;;;;;;;5.17;2.07;;;;;;;5.79;99.25;102607.97;6023252;28;20139;-70
2022/11/12 03:06:51;;;;;;;5.90;2.33;;;;;;;5.72;99.20;102622.34;6022810;28;20306;-69
2022/11/12 03:09:47;;;;;;;5.35;1.90;;;;;;;5.74;100.00;102620.50;6022595;28;20038;-68
2022/11/12 03:12:43;;;;;;;6.03;2.40;;;;;;;5.61;99.46;102621.09;6021942;28;20038;-69
2022/11/12 03:15:38;;;;;;;5.07;2.30;;;;;;;5.65;99.95;102607.75;6022166;28;20038;-69
2022/11/12 03:18:33;;;;;;;4.93;2.07;;;;;;;5.71;99.49;102628.53;6022651;28;20125;-69
2022/11/12 03:21:29;;;;;;;3.67;1.67;;;;;;;5.61;99.64;102624.59;6021804;28;20042;-68
2022/11/12 03:24:24;;;;;;;3.77;1.80;;;;;;;5.61;100.00;102618.47;6022983;28;20030;-68
2022/11/12 03:27:19;;;;;;;7.33;2.17;;;;;;;5.50;100.00;102605.78;6021759;28;20034;-68
2022/11/12 03:30:14;;;;;;;8.27;2.50;;;;;;;5.55;100.00;102614.31;6021666;28;20030;-69
2022/11/12 03:33:11;;;;;;;4.13;1.87;;;;;;;5.49;100.00;102617.22;6021828;28;20065;-68
2022/11/12 03:36:07;;;;;;;5.70;2.90;;;;;;;5.48;100.00;102636.56;6021573;28;20438;-69
2022/11/12 03:39:02;;;;;;;4.07;1.60;;;;;;;5.15;100.00;102638.00;6022455;28;20041;-69
2022/11/12 03:41:58;;;;;;;6.43;2.50;;;;;;;4.92;100.00;102632.84;6021358;28;20638;-69
2022/11/12 03:44:53;;;;;;;5.50;1.83;;;;;;;5.13;100.00;102629.34;6021416;28;20152;-69
2022/11/12 03:47:51;;;;;;;6.77;2.33;;;;;;;5.10;100.00;102616.31;6022442;28;20045;-70
2022/11/12 03:50:47;;;;;;;4.18;1.80;;;;;;;4.64;100.00;102630.47;6020955;28;20557;-70
2022/11/12 03:53:42;;;;;;;4.38;1.90;;;;;;;4.70;100.00;102620.56;6022328;28;20165;-68
2022/11/12 03:56:37;;;;;;;5.53;2.13;;;;;;;4.75;100.00;102628.28;6014804;28;20026;-68
2022/11/12 03:59:33;;;;;;;6.10;1.67;;;;;;;4.24;100.00;102628.53;6019432;28;20280;-70
2022/11/12 04:02:29;;;;;;;3.33;1.63;;;;;;;3.80;100.00;102616.22;6020559;28;20042;-69
2022/11/12 04:08:39;;;;;;;6.25;2.17;;;;;;;3.79;100.00;102631.09;6021915;28;20474;-69
2022/11/12 04:11:34;;;;;;;4.07;1.80;;;;;;;4.21;100.00;102620.78;6021387;28;20042;-68
2022/11/12 04:14:29;;;;;;;3.67;2.00;;;;;;;4.36;100.00;102612.31;6021154;28;20045;-68
2022/11/12 04:23:52;;;;;;;5.90;2.50;;;;;;;4.63;100.00;102626.97;6021634;28;20030;-69
2022/11/12 04:26:48;;;;;;;4.73;2.13;;;;;;;4.63;100.00;102605.97;6022057;28;20034;-69
2022/11/12 04:32:58;;;;;;;3.65;1.58;;;;;;;4.70;100.00;102610.03;6020552;28;20042;-68
2022/11/12 04:35:53;;;;;;;4.73;2.17;;;;;;;4.84;100.00;102614.75;6021231;28;20034;-70
2022/11/12 04:38:48;;;;;;;4.57;2.10;;;;;;;4.85;100.00;102618.22;6022164;28;20353;-70
2022/11/12 04:45:04;;;;;;;4.50;2.17;;;;;;;4.50;100.00;102610.00;6021386;28;20474;-70
2022/11/12 04:47:59;;;;;;;4.70;2.00;;;;;;;4.34;100.00;102619.41;6025029;28;20027;-68
2022/11/12 04:50:57;;;;;;;5.70;2.63;;;;;;;4.01;100.00;102625.91;6025192;28;20096;-70
2022/11/12 04:53:52;;;;;;;5.63;2.10;;;;;;;3.63;100.00;102615.97;6025809;28;20115;-69
2022/11/12 04:56:48;;;;;;;7.38;2.53;;;;;;;3.71;100.00;102624.41;6019521;28;20107;-69
2022/11/12 04:59:43;;;;;;;8.10;2.80;;;;;;;4.37;100.00;102624.53;6023851;28;20435;-69
2022/11/12 05:02:38;;;;;;;6.97;2.90;;;;;;;4.42;100.00;102606.81;6023792;28;20018;-69
2022/11/12 05:05:34;;;;;;;8.30;2.80;;;;;;;4.06;100.00;102629.22;6023711;28;20238;-69
2022/11/12 05:08:29;;;;;;;6.10;2.77;;;;;;;3.58;100.00;102627.50;6023931;28;20458;-68
2022/11/12 05:11:24;;;;;;;6.73;3.37;;;;;;;3.68;100.00;102621.91;6023197;28;20106;-68
2022/11/12 05:14:21;;;;;;;8.10;2.87;;;;;;;3.79;100.00;102630.25;6023564;28;20033;-68
2022/11/12 05:17:16;;;;;;;5.82;2.40;;;;;;;4.06;100.00;102629.22;6025278;28;20037;-69
2022/11/12 05:20:12;;;;;;;5.93;2.53;;;;;;;4.28;100.00;102629.25;6024790;28;20030;-69
2022/11/12 05:23:07;;;;;;;7.60;3.03;;;;;;;4.18;100.00;102618.28;6025293;28;20030;-68
2022/11/12 05:26:03;;;;;;;5.50;2.30;;;;;;;3.92;100.00;102613.13;6025495;28;20145;-68
2022/11/12 05:28:58;;;;;;;8.97;2.90;;;;;;;4.06;100.00;102624.84;6025488;28;20467;-68
2022/11/12 05:31:54;;;;;;;7.40;2.67;;;;;;;4.12;100.00;102613.25;6024606;28;20359;-68
2022/11/12 05:34:49;;;;;;;6.82;2.67;;;;;;;3.78;100.00;102615.44;6024854;28;20339;-69
2022/11/12 05:37:44;;;;;;;6.53;2.67;;;;;;;3.27;100.00;102608.47;6024880;28;20034;-69
2022/11/12 05:40:44;;;;;;;8.53;3.60;;;;;;;3.92;100.00;102621.00;6023437;28;20058;-69
2022/11/12 05:43:39;;;;;;;7.95;2.60;;;;;;;3.93;100.00;102622.72;6024862;28;20258;-69
2022/11/12 05:46:34;;;;;;;7.07;2.67;;;;;;;4.03;100.00;102624.94;6024874;28;20356;-69
2022/11/12 05:49:30;;;;;;;6.60;2.53;;;;;;;3.49;100.00;102640.06;6024853;28;20498;-69
2022/11/12 05:52:25;;;;;;;7.57;2.60;;;;;;;3.28;100.00;102628.56;6023986;28;20642;-69
2022/11/12 05:55:20;;;;;;;5.87;2.70;;;;;;;3.33;100.00;102621.38;6024434;28;20730;-68
2022/11/12 05:58:15;;;;;;;5.60;2.57;;;;;;;3.39;100.00;102625.56;6023314;28;20452;-69
2022/11/12 06:01:11;;;;;;;7.70;2.73;;;;;;;3.48;100.00;102635.72;6023836;28;20022;-68
2022/11/12 06:04:06;;;;;;;8.00;3.10;;;;;;;3.22;100.00;102622.66;6024191;28;20045;-69
2022/11/12 06:07:02;;;;;;;6.30;3.13;;;;;;;3.12;100.00;102605.53;6024472;28;20680;-67
2022/11/12 06:09:58;;;;;;;5.20;2.80;;;;;;;3.52;100.00;102614.59;6024273;28;20062;-69
2022/11/12 06:12:53;;;;;;;7.50;2.90;;;;;;;3.99;100.00;102630.38;6023832;28;20042;-68
2022/11/12 06:15:49;;;;;;;4.80;2.35;;;;;;;3.80;100.00;102624.94;6024073;28;20053;-69
2022/11/12 06:18:45;;;;;;;5.65;2.97;;;;;;;3.97;100.00;102625.16;6024158;28;20105;-68
2022/11/12 06:21:40;;;;;;;7.07;2.90;;;;;;;3.88;100.00;102627.28;6023525;28;20026;-69
2022/11/12 06:24:35;;;;;;;9.53;3.20;;;;;;;4.02;100.00;102623.22;6023894;28;20038;-69
2022/11/12 06:27:31;;;;;;;7.30;3.50;;;;;;;4.12;100.00;102631.63;6024159;28;20027;-68
2022/11/12 06:30:26;;;;;;;9.32;3.33;;;;;;;3.89;100.00;102627.22;6022753;28;20352;-68
2022/11/12 06:33:21;;;;;;;6.77;3.23;;;;;;;4.04;100.00;102646.81;6024605;28;20050;-69
2022/11/12 06:36:18;;;;;;;6.87;3.30;;;;;;;3.35;100.00;102634.41;6023871;28;20733;-68
2022/11/12 06:39:13;;;;;;;8.93;3.63;;;;;;;3.26;100.00;102635.59;6023408;28;20038;-68
2022/11/12 06:42:09;;;;;;;8.00;4.03;;;;;;;3.40;100.00;102638.59;6023025;28;20707;-68
2022/11/12 06:45:05;;;;;;;10.13;3.30;;;;;;;3.42;100.00;102635.94;6023196;28;20293;-69
2022/11/12 06:48:01;;;;;;;9.57;3.05;;;;;;;3.68;100.00;102637.63;6023481;28;20081;-69
2022/11/12 06:50:57;;;;;;;7.47;3.27;;;;;;;3.82;100.00;102636.25;6022876;28;20042;-69
2022/11/12 06:53:54;;;;;;;5.95;2.70;;;;;;;3.75;100.00;102649.63;6023235;28;20026;-68
2022/11/12 06:56:49;;;;;;;6.65;3.10;;;;;;;3.50;100.00;102642.66;6025520;28;20053;-68
2022/11/12 06:59:44;;;;;;;9.43;3.47;;;;;;;3.49;100.00;102654.03;6026463;28;20030;-69
2022/11/12 07:02:39;;;;;;;8.30;3.43;;;;;;;3.50;100.00;102657.50;6022632;28;20376;-68
2022/11/12 07:05:36;;;;;;;8.70;3.10;;;;;;;3.67;100.00;102667.41;6023296;28;20034;-69
2022/11/12 07:08:32;;;;;;;7.40;3.30;;;;;;;3.76;100.00;102682.81;6022619;28;20030;-69
2022/11/12 07:11:27;;;;;;;7.10;3.10;;;;;;;3.76;100.00;102661.81;6022612;28;20466;-69
2022/11/12 07:14:22;;;;;;;7.37;3.37;;;;;;;3.82;100.00;102657.22;6022970;28;20273;-69
2022/11/12 07:17:18;;;;;;;7.53;3.10;;;;;;;4.19;100.00;102670.72;6022583;28;20093;-68
2022/11/12 07:20:13;;;;;;;8.03;3.20;;;;;;;4.22;100.00;102660.09;6021946;28;20596;-68
2022/11/12 07:23:08;;;;;;;6.53;2.93;;;;;;;4.45;100.00;102669.75;6022471;28;20018;-68
2022/11/12 07:26:06;;;;;;;7.10;3.20;;;;;;;4.42;100.00;102669.84;6022967;28;20364;-69
2022/11/12 07:29:01;;;;;;;7.60;2.55;;;;;;;4.39;100.00;102653.34;6022386;28;20030;-69
2022/11/12 07:31:56;;;;;;;4.57;2.37;;;;;;;4.38;100.00;102678.75;6021996;28;20044;-69
2022/11/12 07:34:52;;;;;;;8.73;3.10;;;;;;;4.44;100.00;102678.53;6022185;28;20049;-69
2022/11/12 07:37:47;;;;;;;9.73;3.47;;;;;;;4.41;100.00;102652.38;6021875;28;20034;-69
2022/11/12 07:40:42;;;;;;;9.13;3.33;;;;;;;4.42;100.00;102659.34;6021721;28;20336;-69
2022/11/12 07:43:38;;;;;;;8.60;3.00;;;;;;;4.49;100.00;102650.31;6022465;28;20301;-69
2022/11/12 07:46:34;;;;;;;5.43;3.25;;;;;;;4.64;100.00;102659.38;6022718;28;20501;-70
2022/11/12 07:49:29;;;;;;;6.25;3.13;;;;;;;4.55;100.00;102663.22;6022577;28;20022;-69
2022/11/12 07:52:24;;;;;;;10.20;4.00;;;;;;;4.28;100.00;102664.25;6020776;28;20037;-69
2022/11/12 07:55:20;;;;;;;7.53;3.73;;;;;;;4.55;100.00;102681.59;6022168;28;20056;-69
2022/11/12 07:58:15;;;;;;;8.05;3.50;;;;;;;4.71;100.00;102679.22;6021535;28;20030;-68
2022/11/12 08:01:24;;;;;;;5.80;2.93;;;;;;;4.60;100.00;102684.91;6021432;28;20027;-69
2022/11/12 08:04:20;;;;;;;8.50;3.50;;;;;;;4.53;100.00;102672.06;6020507;28;20080;-69
2022/11/12 08:07:15;;;;;;;8.70;3.70;;;;;;;4.59;100.00;102677.91;6021798;28;20034;-69
2022/11/12 08:10:10;;;;;;;8.43;4.60;;;;;;;4.37;100.00;102665.69;6021298;28;20027;-68
2022/11/12 08:13:06;;;;;;;10.40;4.33;;;;;;;4.40;100.00;102666.44;6021967;28;20030;-69
2022/11/12 08:16:01;;;;;;;8.20;3.87;;;;;;;4.33;100.00;102672.81;6022022;28;20272;-70
2022/11/12 08:18:57;;;;;;;11.90;3.97;;;;;;;4.34;100.00;102685.06;6021628;28;20273;-68
2022/11/12 08:21:52;;;;;;;8.93;4.18;;;;;;;4.39;100.00;102690.13;6025320;28;20456;-68
2022/11/12 08:24:48;;;;;;;9.15;4.20;;;;;;;4.32;100.00;102673.72;6026354;28;20645;-68
2022/11/12 08:27:43;;;;;;;7.07;3.70;;;;;;;4.42;100.00;102695.25;6026410;28;20027;-70
2022/11/12 08:30:38;;;;;;;10.07;6.17;;;;;;;4.55;100.00;102692.09;6026042;28;20332;-70
2022/11/12 08:33:34;;;;;;;17.27;6.53;;;;;;;4.45;100.00;102685.50;6026391;28;20265;-69
2022/11/12 08:36:29;;;;;;;9.65;4.78;;;;;;;4.64;100.00;102685.66;6026763;28;20261;-69
2022/11/12 08:39:25;;;;;;;12.93;7.73;;;;;;;4.96;100.00;102692.25;6026246;28;20026;-69
2022/11/12 08:42:20;;;;;;;10.33;4.33;;;;;;;5.18;100.00;102687.84;6025375;28;20062;-70
2022/11/12 08:45:15;;;;;;;10.03;3.97;;;;;;;5.28;100.00;102679.50;6026458;28;20265;-69
2022/11/12 08:48:15;;;;;;;10.73;3.80;;;;;;;5.41;100.00;102690.34;6026262;28;20617;-68
2022/11/12 08:51:10;;;;;;;7.97;3.65;;;;;;;5.65;100.00;102677.97;6026021;28;20053;-68
2022/11/12 08:54:05;;;;;;;10.82;5.28;;;;;;;5.77;100.00;102678.28;6026474;28;20073;-69
2022/11/12 08:57:01;;;;;;;11.97;3.87;;;;;;;5.93;100.00;102699.53;6025981;28;20038;-68
2022/11/12 08:59:56;;;;;;;7.93;3.50;;;;;;;6.29;100.00;102695.28;6026503;28;20027;-68
2022/11/12 09:02:51;;;;;;;6.87;4.03;;;;;;;6.34;100.00;102695.03;6025575;28;20038;-69
2022/11/12 09:05:47;;;;;;;7.90;4.03;;;;;;;6.42;99.80;102699.03;6026325;28;20070;-69
2022/11/12 09:08:42;;;;;;;9.13;4.45;;;;;;;6.52;98.69;102702.13;6025668;28;20673;-68
2022/11/12 09:11:38;;;;;;;9.65;3.90;;;;;;;6.44;97.75;102699.00;6024886;28;20074;-69
2022/11/12 09:14:33;;;;;;;12.07;4.55;;;;;;;6.29;98.01;102707.59;6025584;28;20363;-69
2022/11/12 09:17:29;;;;;;;10.20;4.72;;;;;;;6.42;98.65;102724.53;6025377;28;20026;-68
2022/11/12 09:20:27;;;;;;;9.02;4.35;;;;;;;6.61;98.66;102704.31;6025327;28;20030;-70
2022/11/12 09:23:22;;;;;;;8.55;4.13;;;;;;;6.66;97.34;102707.59;6024759;28;20130;-69
2022/11/12 09:26:18;;;;;;;10.13;4.25;;;;;;;6.80;97.07;102713.06;6025688;28;20084;-70
2022/11/12 09:29:13;;;;;;;7.43;3.50;;;;;;;6.67;97.24;102703.19;6025340;28;20034;-68
2022/11/12 09:32:08;;;;;;;9.13;4.03;;;;;;;6.62;97.54;102706.03;6024643;28;20054;-69
2022/11/12 09:35:04;;;;;;;11.20;4.47;;;;;;;6.77;96.73;102705.31;6026128;28;20277;-67
2022/11/12 09:37:59;;;;;;;8.10;3.80;;;;;;;6.98;95.43;102721.91;6029261;28;20078;-67
2022/11/12 09:41:13;;;;;;;11.83;3.43;;;;;;;6.94;94.01;102707.13;6024662;28;20449;-68
2022/11/12 09:44:13;;;;;;;7.75;3.22;;;;;;;7.13;93.37;102719.38;6025445;28;20026;-68
2022/11/12 09:47:16;;;;;;;10.75;3.65;;;;;;;7.30;93.00;102717.69;6024949;28;20030;-69
2022/11/12 09:50:20;;;;;;;10.02;3.38;;;;;;;7.42;91.68;102711.81;6024967;28;20026;-68
2022/11/12 09:53:19;;;;;;;8.98;4.25;;;;;;;7.70;90.50;102720.03;6023716;28;20045;-69
2022/11/12 09:56:18;;;;;;;8.30;4.10;;;;;;;7.85;89.15;102715.75;6025050;28;20469;-68
2022/11/12 09:59:14;;;;;;;11.85;3.35;;;;;;;7.96;88.07;102716.91;6023668;28;20733;-70
2022/11/12 10:02:39;;;;;;;11.20;3.72;;;;;;;8.12;87.80;102720.47;6022789;28;20026;-69
2022/11/12 10:06:01;;;;;;;10.27;3.75;;;;;;;8.01;87.68;102701.69;6023392;28;20045;-68
2022/11/12 10:09:00;;;;;;;6.97;3.22;;;;;;;8.02;87.42;102707.78;6003333;28;20038;-69
2022/11/12 10:20:01;;;;;;;9.02;3.65;;;;;;;8.34;87.33;102691.97;6006335;28;20042;-68
2022/11/12 10:23:05;;;;;;;9.07;3.42;;;;;;;8.44;87.07;102707.34;6019964;28;20038;-68
2022/11/12 10:26:10;;;;;;;10.65;3.53;;;;;;;8.63;86.83;102714.19;6004396;28;20035;-68
2022/11/12 10:29:23;;;;;;;11.35;4.00;;;;;;;8.73;86.58;102703.94;6024056;28;20046;-69
2022/11/12 10:32:19;;;;;;;11.07;4.22;;;;;;;8.99;86.23;102695.41;6023150;28;20038;-68
2022/11/12 10:35:21;;;;;;;11.40;3.80;;;;;;;9.15;85.14;102680.34;6023870;28;20390;-69
2022/11/12 10:38:22;;;;;;;7.82;3.55;;;;;;;9.41;83.55;102676.19;6024001;28;20121;-70
2022/11/12 10:41:32;;;;;;;10.07;3.30;;;;;;;9.70;82.50;102670.03;6021622;28;20038;-70
2022/11/12 10:44:27;;;;;;;9.15;3.33;;;;;;;9.80;80.73;102689.72;6023055;28;20030;-68
2022/11/12 10:47:41;;;;;;;7.60;3.27;;;;;;;10.17;80.37;102677.72;6023376;28;20036;-68
2022/11/12 10:50:41;;;;;;;6.50;3.40;;;;;;;10.34;78.98;102668.72;6021662;28;20088;-70
2022/11/12 10:53:38;;;;;;;6.60;3.22;;;;;;;10.36;78.21;102664.16;6022848;28;20517;-69
2022/11/12 10:56:33;;;;;;;5.30;2.92;;;;;;;10.39;77.43;102666.63;6023429;28;20105;-68
2022/11/12 10:59:29;;;;;;;7.53;2.43;;;;;;;10.39;76.60;102669.28;6023392;28;20104;-68
2022/11/12 11:02:24;;;;;;;6.10;2.90;;;;;;;10.36;75.62;102673.00;6021453;28;20426;-68
2022/11/12 11:05:33;;;;;;;4.55;2.28;;;;;;;10.41;76.70;102670.88;6023220;28;20381;-69
2022/11/12 11:08:38;;;;;;;7.18;2.47;;;;;;;10.50;78.11;102654.41;6022681;28;20026;-70
2022/11/12 11:11:33;;;;;;;10.90;4.68;;;;;;;10.51;78.56;102661.44;6022159;28;20807;-68
2022/11/12 11:14:31;;;;;;;11.07;3.40;;;;;;;10.45;79.28;102656.50;6023015;28;20030;-68
2022/11/12 11:17:26;;;;;;;8.63;3.97;;;;;;;10.54;79.66;102655.94;6022769;28;20350;-69
2022/11/12 11:20:38;;;;;;;7.93;3.10;;;;;;;10.82;78.56;102648.84;6022161;28;20034;-70
2022/11/12 11:23:46;;;;;;;6.32;2.70;;;;;;;10.84;77.20;102636.31;6021906;28;20494;-69
2022/11/12 11:27:09;;;;;;;7.03;2.83;;;;;;;10.64;76.67;102624.34;6020716;28;20356;-68
2022/11/12 11:30:09;;;;;;;7.43;2.88;;;;;;;11.02;75.89;102635.09;6022227;28;20549;-68
2022/11/12 11:33:23;;;;;;;6.72;2.95;;;;;;;11.23;75.19;102634.50;6022177;28;20046;-69
2022/11/12 11:36:23;;;;;;;6.43;2.88;;;;;;;11.47;73.63;102631.16;6022400;28;20033;-69
2022/11/12 11:39:22;;;;;;;;;;;;;;;11.34;72.48;102631.13;6021309;28;20518;-69
2022/11/12 11:42:31;;;;;;;6.72;3.00;;;;;;;11.35;73.61;102627.53;6021511;28;19980;-69
2022/11/12 11:45:47;;;;;;;11.55;3.28;;;;;;;11.64;73.55;102633.50;6021129;28;20042;-69
2022/11/12 11:49:17;;;;;;;6.10;2.50;;;;;;;11.78;70.79;102644.91;6022769;28;20046;-69
2022/11/12 11:52:27;;;;;;;7.80;3.78;;;;;;;11.76;71.18;102627.38;6011844;28;20034;-68
2022/11/12 11:55:32;;;;;;;6.70;2.92;;;;;;;11.82;70.68;102614.50;6020188;28;20074;-69
2022/11/12 11:58:39;;;;;;;6.78;3.42;;;;;;;12.27;68.79;102622.84;6020255;28;20034;-70
2022/11/12 12:02:03;;;;;;;5.40;2.95;;;;;;;12.37;68.18;102623.88;6021276;28;20157;-70
2022/11/12 12:05:36;;;;;;;11.48;4.60;;;;;;;12.46;66.99;102633.84;6016629;28;20050;-69
2022/11/12 12:09:05;;;;;;;4.82;1.90;;;;;;;12.44;64.99;102615.34;6021677;28;20038;-68
2022/11/12 12:12:17;;;;;;;5.57;2.40;;;;;;;12.16;66.75;102601.47;6021534;28;20463;-70
2022/11/12 12:15:28;;;;;;;9.50;3.53;;;;;;;12.52;64.65;102614.78;6024157;28;20023;-68
2022/11/12 12:18:30;;;;;;;4.35;2.22;;;;;;;12.38;63.99;102609.63;6020469;28;20042;-67
2022/11/12 12:21:30;;;;;;;7.63;1.90;;;;;;;12.47;63.24;102607.13;6021205;28;20030;-68
2022/11/12 12:24:44;;;;;;;4.95;1.90;;;;;;;12.79;63.03;102603.91;6021888;28;20045;-70
2022/11/12 12:27:48;;;;;;;5.38;2.83;;;;;;;13.09;64.22;102613.16;6020704;28;20045;-70
2022/11/12 12:30:46;;;;;;;4.60;1.80;;;;;;;13.08;66.27;102600.81;6021132;28;20042;-70
2022/11/12 12:34:17;;;;;;;4.30;1.58;;;;;;;13.01;64.67;102594.22;6019861;28;20030;-69
2022/11/12 12:37:26;;;;;;;4.88;1.85;;;;;;;13.03;63.98;102596.75;6007857;28;20042;-69
2022/11/12 12:40:33;;;;;;;5.40;2.08;;;;;;;13.09;62.00;102593.66;6019812;28;20426;-70
2022/11/12 12:44:02;;;;;;;4.20;2.05;;;;;;;12.93;63.71;102580.63;6020049;28;20026;-68
2022/11/12 12:46:59;;;;;;;4.40;2.08;;;;;;;12.81;65.05;102586.88;5998324;28;20047;-68
2022/11/12 12:49:56;;;;;;;7.88;2.80;;;;;;;12.78;65.21;102580.91;6021280;28;20659;-69
2022/11/12 12:53:02;;;;;;;9.23;2.58;;;;;;;12.68;65.50;102582.56;6019454;28;20385;-70
2022/11/12 12:56:01;;;;;;;4.07;2.30;;;;;;;12.67;66.62;102583.50;6021130;28;20035;-70
2022/11/12 12:59:02;;;;;;;6.80;2.00;;;;;;;12.64;65.58;102578.44;6020427;28;20030;-69
2022/11/12 13:02:01;;;;;;;7.40;1.80;;;;;;;12.73;65.19;102589.25;6020727;28;20038;-69
2022/11/12 13:04:58;;;;;;;4.32;1.60;;;;;;;12.68;65.55;102586.09;6019898;28;20041;-69
2022/11/12 13:07:57;;;;;;;2.92;1.20;;;;;;;12.63;64.90;102577.59;6025039;28;20030;-67
2022/11/12 13:10:52;;;;;;;3.00;1.23;;;;;;;12.55;65.74;102582.63;6025018;28;20037;-67
2022/11/12 13:13:48;;;;;;;2.55;1.50;;;;;;;12.48;65.61;102586.69;6024637;28;20026;-68
2022/11/12 13:16:49;;;;;;;3.07;1.23;;;;;;;12.38;66.09;102585.66;6025233;28;20463;-67
2022/11/12 13:19:57;;;;;;;2.55;1.10;;;;;;;12.38;65.96;102588.34;6025613;28;20873;-68
2022/11/12 13:22:54;;;;;;;3.28;1.58;;;;;;;12.24;66.25;102586.66;6025122;28;20041;-68
2022/11/12 13:25:49;;;;;;;6.55;2.70;;;;;;;12.22;66.29;102579.75;6025763;28;20029;-68
2022/11/12 13:29:22;;;;;;;2.13;1.40;;;;;;;12.20;66.07;102587.00;6025886;28;20034;-68
2022/11/12 13:32:44;;;;;;;3.50;1.52;;;;;;;12.26;64.37;102591.88;6025018;28;20761;-68
2022/11/12 13:35:40;;;;;;;9.82;7.47;;;;;;;12.18;63.62;102583.59;6025321;28;20042;-67
2022/11/12 13:38:36;;;;;;;3.97;2.58;;;;;;;12.18;64.67;102575.63;6024360;28;20037;-68
2022/11/12 13:44:47;;;;;;;5.43;1.83;;;;;;;12.13;64.63;102572.44;6025561;28;20033;-67
2022/11/12 13:47:43;;;;;;;4.55;1.40;;;;;;;12.22;65.10;102580.63;6025567;28;20022;-68
2022/11/12 13:50:40;;;;;;;3.22;1.77;;;;;;;12.23;65.17;102573.50;6023132;28;20120;-67
2022/11/12 13:53:35;;;;;;;2.83;1.40;;;;;;;12.17;65.17;102555.31;6025480;28;20054;-68
2022/11/12 13:56:33;;;;;;;3.10;1.58;;;;;;;12.12;65.63;102568.09;6024868;28;20030;-68
2022/11/12 13:59:28;;;;;;;4.18;1.45;;;;;;;12.11;65.99;102566.38;6025258;28;20470;-68
2022/11/12 14:02:25;;;;;;;2.77;1.30;;;;;;;12.10;65.27;102552.22;6022889;28;20045;-67
2022/11/12 14:05:23;;;;;;;3.38;1.70;;;;;;;12.06;65.44;102544.59;6023496;28;20034;-68
2022/11/12 14:08:35;;;;;;;3.05;2.20;;;;;;;12.07;65.71;102567.56;6024313;28;20132;-69
2022/11/12 14:12:04;;;;;;;5.10;1.50;;;;;;;12.02;66.35;102570.56;6022355;28;20161;-68
2022/11/12 14:15:16;;;;;;;4.38;1.73;;;;;;;11.84;66.34;102556.78;6023529;28;20057;-69
2022/11/12 14:18:23;;;;;;;4.25;1.40;;;;;;;11.76;67.12;102564.44;6023374;28;20303;-69
2022/11/12 14:21:18;;;;;;;3.30;1.52;;;;;;;11.76;66.76;102569.75;6023365;28;20542;-69